Time;durP1;ratioP1;P1;durP2;ratioP2;P2;SDS_P1;SDS_P2;PMS_P1;PMS_P2;Temp;Humidity;BMP_temperature;BMP_pressure;BME280_temperature;BME280_humidity;BME280_pressure;Samples;Min_cycle;Max_cycle;Signal;HPM_P1;HPM_P2
2022/03/17 00:00:04;;;;;;;;;16.50;16.50;;;;;12.33;55.72;100338.41;5113872;28;8859;-63
2022/03/17 00:02:32;;;;;;;;;9.00;7.50;;;;;12.31;56.02;100333.19;5114453;28;9351;-63
2022/03/17 00:05:00;;;;;;;;;16.00;15.25;;;;;12.31;55.72;100327.84;5115221;28;8823;-62
2022/03/17 00:07:28;;;;;;;;;12.00;11.00;;;;;12.29;55.91;100324.44;5114618;28;8942;-63
2022/03/17 00:09:56;;;;;;;;;14.50;13.00;;;;;12.29;55.66;100324.44;5114679;28;8820;-62
2022/03/17 00:12:24;;;;;;;;;18.25;15.25;;;;;12.30;55.76;100311.97;5113806;28;8950;-62
2022/03/17 00:14:55;;;;;;;;;17.25;16.25;;;;;12.32;55.71;100321.53;5115092;28;8824;-63
2022/03/17 00:17:22;;;;;;;;;17.75;17.00;;;;;12.34;56.01;100310.72;5114814;28;8850;-62
2022/03/17 00:19:50;;;;;;;;;17.00;15.75;;;;;12.34;55.72;100318.75;5118607;28;8839;-62
2022/03/17 00:22:18;;;;;;;;;14.00;12.75;;;;;12.33;55.85;100314.38;5118350;28;8840;-63
2022/03/17 00:24:46;;;;;;;;;28.25;20.75;;;;;12.32;55.73;100321.53;5118183;28;8946;-62
2022/03/17 00:27:13;;;;;;;;;9.50;7.00;;;;;12.34;56.37;100316.94;5118460;28;8828;-62
2022/03/17 00:29:41;;;;;;;;;17.50;15.25;;;;;12.36;55.91;100308.78;5118429;28;8832;-62
2022/03/17 00:32:09;;;;;;;;;19.50;15.75;;;;;12.36;55.97;100309.63;5117559;28;8828;-62
2022/03/17 00:35:35;;;;;;;;;20.75;18.50;;;;;12.34;55.87;100305.38;5117326;28;8824;-62
2022/03/17 00:37:25;;;;;;;;;23.75;20.00;;;;;12.37;56.11;100308.66;5117929;28;8901;-62
2022/03/17 00:39:52;;;;;;;;;16.00;14.50;;;;;12.38;56.11;100312.19;5118081;28;8831;-62
2022/03/17 00:42:21;;;;;;;;;14.50;13.00;;;;;12.38;55.59;100312.19;5117869;28;8835;-62
2022/03/17 00:44:48;;;;;;;;;15.50;15.50;;;;;12.38;55.83;100317.53;5117699;28;9334;-62
2022/03/17 00:47:16;;;;;;;;;19.75;16.00;;;;;12.37;56.02;100326.50;5118071;28;8836;-62
2022/03/17 00:49:44;;;;;;;;;18.50;16.75;;;;;12.36;55.56;100319.47;5118225;28;8840;-62
2022/03/17 00:52:12;;;;;;;;;20.00;19.50;;;;;12.36;55.74;100317.66;5116717;28;8827;-63
2022/03/17 00:54:40;;;;;;;;;19.00;18.75;;;;;12.43;55.62;100324.19;5117203;28;8855;-63
2022/03/17 00:57:07;;;;;;;;;16.75;16.25;;;;;12.50;55.55;100324.53;5117873;28;8958;-63
2022/03/17 00:59:35;;;;;;;;;23.50;18.25;;;;;12.52;55.10;100336.78;5118374;28;8828;-63
2022/03/17 01:02:04;;;;;;;;;22.50;22.00;;;;;12.55;55.27;100336.53;5118055;28;8942;-63
2022/03/17 01:04:32;;;;;;;;;19.50;17.50;;;;;12.59;55.99;100342.47;5117574;28;8847;-63
2022/03/17 01:07:00;;;;;;;;;20.50;18.25;;;;;12.59;55.48;100331.78;5117284;28;8831;-62
2022/03/17 01:09:28;;;;;;;;;19.00;17.50;;;;;12.58;55.70;100330.97;5117334;28;8846;-62
2022/03/17 01:11:56;;;;;;;;;22.25;21.25;;;;;12.57;55.16;100329.25;5117662;28;8843;-63
2022/03/17 01:14:24;;;;;;;;;26.25;20.75;;;;;12.56;55.34;100326.72;5117585;28;8824;-62
2022/03/17 01:16:51;;;;;;;;;18.50;16.50;;;;;12.56;55.64;100324.91;5117361;28;8838;-63
2022/03/17 01:19:20;;;;;;;;;21.50;20.50;;;;;12.55;55.33;100325.00;5116946;28;8878;-62
2022/03/17 01:21:48;;;;;;;;;22.75;19.50;;;;;12.54;55.89;100321.47;5115325;28;9505;-63
2022/03/17 01:24:16;;;;;;;;;19.50;19.00;;;;;12.51;55.61;100316.41;5117368;28;8987;-63
2022/03/17 01:26:43;;;;;;;;;18.50;18.00;;;;;12.48;55.60;100318.47;5117634;28;8863;-62
2022/03/17 01:29:15;;;;;;;;;14.50;12.75;;;;;12.48;55.72;100314.00;5117086;28;8832;-62
2022/03/17 01:31:42;;;;;;;;;15.75;15.00;;;;;12.48;55.97;100313.13;5117302;28;8824;-63
2022/03/17 01:34:10;;;;;;;;;17.75;15.50;;;;;12.46;55.95;100304.41;5117528;28;9832;-62
2022/03/17 01:36:38;;;;;;;;;20.50;17.00;;;;;12.43;56.07;100299.28;5117663;28;8962;-62
2022/03/17 01:39:05;;;;;;;;;15.25;15.00;;;;;12.42;56.30;100297.59;5116527;28;8842;-63
2022/03/17 01:41:33;;;;;;;;;14.25;13.00;;;;;12.40;55.71;100288.88;5116998;28;8823;-63
2022/03/17 01:44:01;;;;;;;;;18.75;17.50;;;;;12.41;56.07;100285.22;5116865;28;8828;-63
2022/03/17 01:46:29;;;;;;;;;16.50;15.00;;;;;12.38;56.18;100280.16;5117305;28;8827;-63
2022/03/17 01:48:57;;;;;;;;;21.00;19.75;;;;;12.38;56.03;100285.47;5116802;28;8840;-63
2022/03/17 01:51:25;;;;;;;;;21.50;19.00;;;;;12.36;56.01;100282.06;5116819;28;9540;-62
2022/03/17 01:53:52;;;;;;;;;21.50;17.50;;;;;12.34;56.12;100270.66;5116902;28;8844;-62
2022/03/17 01:56:20;;;;;;;;;21.50;20.75;;;;;12.34;56.12;100276.88;5116997;28;8855;-62
2022/03/17 01:58:48;;;;;;;;;24.75;24.25;;;;;12.39;56.21;100271.16;5116706;28;8832;-63
2022/03/17 02:01:16;;;;;;;;;22.50;21.25;;;;;12.40;55.94;100279.00;5117339;28;8847;-62
2022/03/17 02:03:47;;;;;;;;;24.75;23.50;;;;;12.41;55.95;100269.19;5117632;28;8840;-63
2022/03/17 02:06:15;;;;;;;;;20.00;17.00;;;;;12.38;55.76;100270.28;5116511;28;8844;-63
2022/03/17 02:08:43;;;;;;;;;19.00;18.75;;;;;12.38;55.98;100264.94;5116522;28;8966;-62
2022/03/17 02:13:56;;;;;;;;;19.50;16.50;;;;;12.38;56.24;100267.63;5116898;28;9592;-63
2022/03/17 02:16:24;;;;;;;;;19.00;17.50;;;;;12.39;55.81;100261.28;5116556;28;8946;-64
2022/03/17 02:18:52;;;;;;;;;19.25;18.75;;;;;12.39;55.84;100249.78;5116484;28;8850;-64
2022/03/17 02:21:20;;;;;;;;;24.25;20.50;;;;;12.37;56.31;100252.56;5116046;28;9198;-63
2022/03/17 02:26:33;;;;;;;;;24.50;19.00;;;;;12.38;55.97;100256.09;5115529;28;9513;-63
2022/03/17 02:29:00;;;;;;;;;15.00;12.75;;;;;12.37;56.39;100249.03;5116051;28;8832;-63
2022/03/17 02:31:29;;;;;;;;;16.50;12.75;;;;;12.37;56.11;100246.38;5116435;28;8819;-63
2022/03/17 02:33:57;;;;;;;;;22.00;19.25;;;;;12.34;55.71;100252.84;5116532;28;8965;-63
2022/03/17 02:36:25;;;;;;;;;25.25;23.00;;;;;12.34;55.83;100251.97;5116287;28;8839;-63
2022/03/17 02:38:53;;;;;;;;;21.75;18.75;;;;;12.33;56.06;100240.47;5115866;28;8834;-64
2022/03/17 02:41:23;;;;;;;;;17.50;15.50;;;;;12.33;56.07;100244.94;5115838;28;8844;-63
2022/03/17 02:43:51;;;;;;;;;24.75;21.25;;;;;12.33;55.99;100255.63;5116340;28;8828;-63
2022/03/17 02:46:19;;;;;;;;;16.50;12.25;;;;;12.32;55.83;100253.94;5115733;28;9707;-63
2022/03/17 02:48:50;;;;;;;;;19.25;18.00;;;;;12.32;55.97;100253.94;5116206;28;8858;-63
2022/03/17 02:51:18;;;;;;;;;16.00;14.00;;;;;12.30;56.44;100247.88;5115836;28;9126;-63
2022/03/17 02:53:48;;;;;;;;;21.00;19.00;;;;;12.28;56.53;100247.13;5115998;28;8859;-63
2022/03/17 02:56:15;;;;;;;;;13.00;12.75;;;;;12.25;56.27;100260.75;5115667;28;8973;-62
2022/03/17 02:58:43;;;;;;;;;16.75;15.75;;;;;12.27;56.18;100256.13;5115919;28;8816;-63
2022/03/17 03:01:11;;;;;;;;;27.50;20.00;;;;;12.26;56.59;100263.28;5116075;28;8847;-64
2022/03/17 03:03:40;;;;;;;;;18.75;17.25;;;;;12.27;56.31;100262.31;5115666;28;8928;-63
2022/03/17 03:06:07;;;;;;;;;24.00;22.00;;;;;12.26;56.26;100265.09;5116001;28;8840;-63
2022/03/17 03:08:35;;;;;;;;;19.50;17.75;;;;;12.26;56.64;100270.44;5115583;28;8887;-63
2022/03/17 03:11:03;;;;;;;;;22.00;21.00;;;;;12.24;56.20;100269.72;5115831;28;8831;-63
2022/03/17 03:13:31;;;;;;;;;25.00;19.50;;;;;12.22;56.68;100269.84;5115459;28;8824;-63
2022/03/17 03:15:58;;;;;;;;;21.00;20.50;;;;;12.20;56.47;100268.25;5115526;28;8840;-62
2022/03/17 03:18:26;;;;;;;;;23.00;22.25;;;;;12.19;56.28;100279.91;5116025;28;9005;-63
2022/03/17 03:20:54;;;;;;;;;14.25;11.50;;;;;12.19;56.22;100269.25;5115543;28;8832;-63
2022/03/17 03:23:22;;;;;;;;;20.50;18.75;;;;;12.18;56.57;100272.88;5115582;28;8839;-64
2022/03/17 03:25:50;;;;;;;;;10.50;10.25;;;;;12.16;56.42;100282.84;5115392;28;9128;-63
2022/03/17 03:28:17;;;;;;;;;4.00;3.50;;;;;12.14;56.53;100282.97;5114249;28;8843;-63
2022/03/17 03:30:45;;;;;;;;;17.00;17.00;;;;;12.14;56.56;100287.44;5114919;28;8852;-62
2022/03/17 03:33:13;;;;;;;;;24.50;22.00;;;;;12.14;56.61;100287.44;5115195;28;8824;-62
2022/03/17 03:38:26;;;;;;;;;23.50;18.50;;;;;12.11;56.99;100293.91;5115646;28;8852;-63
2022/03/17 03:40:54;;;;;;;;;22.00;20.50;;;;;12.07;56.80;100292.44;5114461;28;8823;-63
2022/03/17 03:43:22;;;;;;;;;31.25;26.75;;;;;12.05;57.08;100291.72;5115264;28;8824;-63
2022/03/17 03:45:50;;;;;;;;;19.00;19.00;;;;;12.06;57.56;100297.88;5114727;28;8836;-63
2022/03/17 03:48:18;;;;;;;;;23.00;19.00;;;;;12.04;57.07;100303.38;5114913;28;8865;-63
2022/03/17 03:50:46;;;;;;;;;19.00;17.50;;;;;12.04;57.42;100307.84;5115248;28;8958;-63
2022/03/17 03:53:14;;;;;;;;;21.75;19.25;;;;;12.03;57.26;100314.16;5115707;28;8831;-63
2022/03/17 03:55:41;;;;;;;;;26.00;24.50;;;;;12.02;57.01;100309.81;5119060;28;8843;-63
2022/03/17 03:58:09;;;;;;;;;21.50;18.50;;;;;12.02;56.97;100326.66;5119542;28;8836;-64
2022/03/17 04:00:36;;;;;;;;;21.50;21.00;;;;;12.02;57.65;100326.66;5118978;28;8828;-64
2022/03/17 04:03:05;;;;;;;;;20.50;16.25;;;;;12.02;57.59;100325.81;5118198;28;8882;-63
2022/03/17 04:05:34;;;;;;;;;31.50;27.50;;;;;12.01;57.58;100338.28;5118309;28;8827;-63
2022/03/17 04:08:01;;;;;;;;;24.75;21.25;;;;;12.02;57.38;100342.66;5118422;28;8946;-63
2022/03/17 04:10:29;;;;;;;;;21.00;18.00;;;;;12.01;57.34;100346.31;5118812;28;8824;-63
2022/03/17 04:12:57;;;;;;;;;20.00;18.75;;;;;12.01;57.11;100342.81;5118557;28;8950;-63
2022/03/17 04:15:25;;;;;;;;;24.75;23.50;;;;;11.98;57.16;100340.34;5118259;28;8816;-63
2022/03/17 04:17:53;;;;;;;;;29.25;24.25;;;;;11.95;57.69;100344.13;5118944;28;8870;-64
2022/03/17 04:20:22;;;;;;;;;21.50;17.50;;;;;11.95;57.79;100341.44;5118684;28;8925;-64
2022/03/17 04:22:50;;;;;;;;;24.50;21.50;;;;;11.95;57.70;100348.63;5118615;28;8836;-63
2022/03/17 04:25:18;;;;;;;;;26.25;22.50;;;;;11.94;57.85;100345.09;5118636;28;8844;-62
2022/03/17 04:27:45;;;;;;;;;22.50;21.00;;;;;11.92;57.77;100335.53;5118517;28;8839;-63
2022/03/17 04:30:13;;;;;;;;;18.50;17.00;;;;;11.91;58.09;100338.31;5118488;28;8854;-63
2022/03/17 04:32:41;;;;;;;;;22.50;19.75;;;;;11.91;57.66;100338.31;5118432;28;8831;-62
2022/03/17 04:35:09;;;;;;;;;16.50;14.00;;;;;11.91;57.96;100343.66;5118481;28;8844;-63
2022/03/17 04:37:37;;;;;;;;;20.00;18.50;;;;;11.90;58.07;100342.78;5117133;28;8824;-63
2022/03/17 04:40:05;;;;;;;;;25.25;21.25;;;;;11.91;57.87;100357.00;5118140;28;8834;-63
2022/03/17 04:42:32;;;;;;;;;26.75;24.50;;;;;11.90;57.98;100365.97;5117900;28;8970;-63
2022/03/17 04:45:00;;;;;;;;;22.50;22.00;;;;;11.89;57.84;100373.13;5117998;28;8828;-63
2022/03/17 04:47:28;;;;;;;;;22.50;20.00;;;;;11.88;58.10;100376.75;5118517;28;8866;-63
2022/03/17 04:49:56;;;;;;;;;16.00;15.00;;;;;11.86;58.23;100378.69;5118142;28;8840;-63
2022/03/17 04:55:08;;;;;;;;;21.50;20.25;;;;;11.83;58.24;100389.59;5114409;28;8872;-63
2022/03/17 04:57:36;;;;;;;;;28.00;27.00;;;;;11.83;58.26;100399.44;5115630;28;8835;-63
2022/03/17 05:00:04;;;;;;;;;20.50;18.75;;;;;11.82;57.90;100414.59;5116659;28;9171;-64
2022/03/17 05:02:31;;;;;;;;;26.00;25.00;;;;;11.81;58.68;100412.03;5117231;28;8842;-63
2022/03/17 05:04:59;;;;;;;;;23.50;21.50;;;;;11.82;58.28;100417.25;5117522;28;8820;-63
2022/03/17 05:07:28;;;;;;;;;23.50;23.25;;;;;11.83;58.30;100421.63;5117390;28;8820;-63
2022/03/17 05:09:56;;;;;;;;;23.00;18.25;;;;;11.85;58.72;100424.19;5117754;28;8828;-63
2022/03/17 05:12:24;;;;;;;;;24.75;22.00;;;;;11.85;58.28;100425.03;5117538;28;8858;-63
2022/03/17 05:14:51;;;;;;;;;23.25;21.75;;;;;11.87;58.75;100428.44;5117741;28;8832;-63
2022/03/17 05:17:19;;;;;;;;;26.00;20.50;;;;;11.89;58.25;100441.66;5117819;28;8820;-64
2022/03/17 05:19:47;;;;;;;;;24.50;20.50;;;;;11.86;58.88;100445.41;5118267;28;8852;-64
2022/03/17 05:22:15;;;;;;;;;10.00;7.25;;;;;11.81;58.93;100444.91;5118527;28;8865;-62
2022/03/17 05:24:42;;;;;;;;;22.50;21.25;;;;;11.74;59.16;100449.00;5116940;28;8836;-63
2022/03/17 05:27:10;;;;;;;;;20.75;20.00;;;;;11.69;59.12;100453.84;5117042;28;8969;-63
2022/03/17 05:29:38;;;;;;;;;22.50;20.00;;;;;11.68;59.00;100460.13;5116503;28;8836;-64
2022/03/17 05:32:05;;;;;;;;;24.75;23.50;;;;;11.67;59.40;100466.44;5116997;28;8858;-63
2022/03/17 05:34:33;;;;;;;;;17.00;14.00;;;;;11.66;59.29;100461.22;5117160;28;8842;-64
2022/03/17 05:37:01;;;;;;;;;24.75;21.25;;;;;11.67;59.63;100469.13;5116845;28;8971;-63
2022/03/17 05:39:29;;;;;;;;;28.50;25.25;;;;;11.66;59.40;100472.75;5116560;28;8824;-63
2022/03/17 05:41:56;;;;;;;;;25.50;21.75;;;;;11.68;59.60;100470.81;5116609;28;9041;-63
2022/03/17 05:44:24;;;;;;;;;26.00;25.00;;;;;11.67;59.45;100474.44;5116647;28;8808;-63
2022/03/17 05:46:52;;;;;;;;;23.75;21.00;;;;;11.67;59.76;100482.44;5115566;28;9653;-63
2022/03/17 05:49:20;;;;;;;;;31.80;26.20;;;;;11.66;59.75;100488.75;5116111;28;8823;-63
2022/03/17 05:51:48;;;;;;;;;28.25;22.00;;;;;11.64;59.59;100487.16;5115682;28;8843;-63
2022/03/17 05:54:16;;;;;;;;;32.60;26.40;;;;;11.59;60.17;100500.03;5116359;28;8877;-63
2022/03/17 05:56:43;;;;;;;;;26.50;24.75;;;;;11.51;60.05;100491.72;5116186;28;8860;-62
2022/03/17 05:59:11;;;;;;;;;31.40;25.40;;;;;11.42;60.24;100495.91;5115664;28;8885;-63
2022/03/17 06:01:38;;;;;;;;;28.80;24.80;;;;;11.36;61.12;100498.19;5114360;28;8852;-63
2022/03/17 06:04:15;;;;;;;;;27.00;26.50;;;;;11.23;61.56;100510.69;5115415;28;8840;-63
2022/03/17 06:06:43;;;;;;;;;24.80;22.40;;;;;11.04;62.35;100519.19;5116147;28;8816;-63
2022/03/17 06:09:11;;;;;;;;;20.50;19.00;;;;;10.89;62.86;100528.28;5115445;28;8843;-63
2022/03/17 06:11:39;;;;;;;;;25.50;22.00;;;;;10.79;63.46;100527.25;5114952;28;8839;-63
2022/03/17 06:14:06;;;;;;;;;25.40;21.60;;;;;10.71;63.22;100540.22;5114578;28;8912;-63
2022/03/17 06:16:34;;;;;;;;;25.00;22.00;;;;;10.63;63.59;100544.41;5112589;28;8858;-63
2022/03/17 06:19:02;;;;;;;;;16.80;14.60;;;;;10.59;63.54;100546.44;5075088;28;8886;-63
2022/03/17 06:21:30;;;;;;;;;22.80;16.80;;;;;10.57;63.87;100547.50;5074791;28;9602;-63
2022/03/17 06:23:57;;;;;;;;;26.80;24.60;;;;;10.54;63.72;100553.88;5073926;28;8842;-63
2022/03/17 06:26:25;;;;;;;;;19.60;18.80;;;;;10.52;64.11;100561.13;5074118;28;8852;-64
2022/03/17 06:28:53;;;;;;;;;25.60;23.20;;;;;10.47;64.36;100567.75;5074149;28;8897;-63
2022/03/17 06:31:21;;;;;;;;;25.00;24.20;;;;;10.41;64.18;100568.16;5074328;28;8988;-63
2022/03/17 06:33:48;;;;;;;;;19.00;18.00;;;;;10.33;64.71;100579.31;5072479;28;8850;-63
2022/03/17 06:36:16;;;;;;;;;25.80;18.80;;;;;10.28;64.49;100584.13;5072680;28;8909;-63
2022/03/17 06:38:44;;;;;;;;;28.60;25.20;;;;;10.21;65.11;100593.47;5073419;28;8847;-64
2022/03/17 06:41:12;;;;;;;;;31.80;25.80;;;;;10.16;65.05;100598.25;5074867;28;9498;-63
2022/03/17 06:43:40;;;;;;;;;31.60;24.40;;;;;10.12;65.42;100609.22;5073206;28;8839;-64
2022/03/17 06:46:08;;;;;;;;;24.00;20.00;;;;;10.07;65.33;100617.50;5073398;28;8832;-63
2022/03/17 06:48:36;;;;;;;;;16.60;15.40;;;;;10.03;65.65;100623.13;5072993;28;8847;-63
2022/03/17 06:51:04;;;;;;;;;33.00;30.60;;;;;10.00;65.97;100625.94;5073092;28;9521;-63
2022/03/17 06:53:32;;;;;;;;;23.80;21.20;;;;;9.97;65.96;100631.47;5072492;28;8848;-63
2022/03/17 06:55:59;;;;;;;;;19.60;17.20;;;;;9.95;65.68;100642.22;5073857;28;8874;-63
2022/03/17 06:58:27;;;;;;;;;24.80;23.20;;;;;9.93;65.80;100656.59;5071923;28;9536;-63
2022/03/17 07:00:56;;;;;;;;;27.80;26.20;;;;;9.87;66.07;100655.16;5072646;28;8836;-63
2022/03/17 07:03:24;;;;;;;;;24.00;20.60;;;;;9.83;66.41;100658.13;5072857;28;8836;-63
2022/03/17 07:05:52;;;;;;;;;33.00;28.00;;;;;9.79;67.03;100664.63;5071679;28;8840;-64
2022/03/17 07:08:20;;;;;;;;;26.20;24.00;;;;;9.76;66.88;100670.13;5072112;28;8859;-63
2022/03/17 07:10:48;;;;;;;;;21.80;20.60;;;;;9.73;67.18;100671.16;5071519;28;8986;-63
2022/03/17 07:13:15;;;;;;;;;37.40;29.80;;;;;9.69;67.06;100680.31;5072844;28;8855;-63
2022/03/17 07:15:43;;;;;;;;;26.40;24.60;;;;;9.66;67.23;100680.47;5072432;28;8836;-63
2022/03/17 07:18:11;;;;;;;;;21.80;20.60;;;;;9.66;67.48;100690.28;5072135;28;8856;-63
2022/03/17 07:20:38;;;;;;;;;29.00;22.80;;;;;9.63;67.34;100691.31;5073004;28;8856;-64
2022/03/17 07:23:06;;;;;;;;;26.80;24.20;;;;;9.65;67.44;100699.22;5072286;28;8901;-63
2022/03/17 07:25:34;;;;;;;;;19.80;19.00;;;;;9.66;67.62;100711.56;5072621;28;8860;-64
2022/03/17 07:28:03;;;;;;;;;30.40;21.40;;;;;9.65;67.83;100709.84;5076811;28;8832;-63
2022/03/17 07:30:33;;;;;;;;;33.00;29.20;;;;;9.67;67.41;100711.47;5079573;28;8991;-63
2022/03/17 07:33:00;;;;;;;;;33.20;24.20;;;;;9.69;67.91;100714.00;5079609;28;8872;-63
2022/03/17 07:35:29;;;;;;;;;18.60;16.80;;;;;9.70;67.76;100734.31;5078345;28;9266;-64
2022/03/17 07:37:58;;;;;;;;;27.80;24.00;;;;;9.73;67.56;100739.47;5078078;28;8919;-63
2022/03/17 07:40:26;;;;;;;;;25.20;22.60;;;;;9.75;67.81;100738.44;5078375;28;8846;-63
2022/03/17 07:42:54;;;;;;;;;27.60;21.60;;;;;9.77;67.68;100752.47;5078674;28;8986;-64
2022/03/17 07:45:21;;;;;;;;;29.80;26.40;;;;;9.78;67.81;100763.97;5079576;28;8848;-63
2022/03/17 07:47:50;;;;;;;;;28.40;24.40;;;;;9.78;67.68;100764.81;5078651;28;8836;-63
2022/03/17 07:50:17;;;;;;;;;24.00;20.60;;;;;9.81;67.63;100774.41;5079042;28;8844;-63
2022/03/17 07:52:45;;;;;;;;;26.80;21.00;;;;;9.82;67.64;100773.47;5079168;28;8932;-63
2022/03/17 07:55:13;;;;;;;;;17.60;17.60;;;;;9.80;68.03;100786.84;5078569;28;8852;-63
2022/03/17 07:57:41;;;;;;;;;17.50;17.00;;;;;9.76;68.22;100798.66;5079034;28;8924;-63
2022/03/17 08:00:11;;;;;;;;;18.50;16.00;;;;;9.73;68.25;100806.78;5077317;28;8938;-62
2022/03/17 08:02:40;;;;;;;;;8.20;6.40;;;;;9.70;68.47;100808.78;5077043;28;8945;-63
2022/03/17 08:05:08;;;;;;;;;20.40;17.20;;;;;9.68;68.90;100811.56;5077029;28;8852;-63
2022/03/17 08:07:36;;;;;;;;;14.20;10.00;;;;;9.65;68.92;100817.06;5076994;28;8843;-63
2022/03/17 08:10:04;;;;;;;;;16.80;11.60;;;;;9.63;68.94;100828.75;5077792;28;8832;-63
2022/03/17 08:12:33;;;;;;;;;15.80;13.00;;;;;9.60;69.02;100828.94;5077930;28;9240;-63
2022/03/17 08:15:04;;;;;;;;;17.60;16.20;;;;;9.56;68.99;100838.06;5078019;28;8966;-63
2022/03/17 08:17:32;;;;;;;;;16.80;14.80;;;;;9.47;69.45;100844.78;5078080;28;8866;-63
2022/03/17 08:20:00;;;;;;;;;11.20;9.60;;;;;9.43;69.91;100853.03;5077626;28;8840;-63
2022/03/17 08:22:29;;;;;;;;;12.00;11.20;;;;;9.42;69.61;100854.84;5079282;28;9501;-63
2022/03/17 08:24:57;;;;;;;;;11.00;9.25;;;;;9.39;70.27;100863.00;5078999;28;8832;-63
2022/03/17 08:27:25;;;;;;;;;9.60;8.20;;;;;9.37;70.11;100864.03;5079674;28;8840;-64
2022/03/17 08:29:53;;;;;;;;;14.60;13.00;;;;;9.37;69.89;100875.53;5078954;28;8835;-64
2022/03/17 08:32:20;;;;;;;;;9.00;7.00;;;;;9.36;70.08;100873.84;5078269;28;8836;-63
2022/03/17 08:34:48;;;;;;;;;10.80;10.00;;;;;9.35;69.69;100877.41;5077386;28;8858;-63
2022/03/17 08:37:16;;;;;;;;;14.40;12.20;;;;;9.32;70.26;100877.59;5077731;28;8937;-63
2022/03/17 08:39:44;;;;;;;;;19.00;15.40;;;;;9.31;70.06;100889.19;5074249;28;8878;-63
2022/03/17 08:42:11;;;;;;;;;18.40;16.00;;;;;9.28;70.23;100902.63;5072528;28;8948;-63
2022/03/17 08:44:40;;;;;;;;;17.60;17.00;;;;;9.24;70.41;100903.78;5073418;28;8856;-64
2022/03/17 08:49:53;;;;;;;;;9.00;8.00;;;;;9.22;70.80;100918.09;5073629;28;8855;-63
2022/03/17 08:52:21;;;;;;;;;14.50;11.00;;;;;9.17;70.85;100925.47;5074082;28;8990;-64
2022/03/17 08:54:49;;;;;;;;;13.80;12.40;;;;;9.15;71.28;100928.25;5073466;28;8831;-62
2022/03/17 08:57:16;;;;;;;;;14.60;12.40;;;;;9.15;71.44;100928.25;5073680;28;8847;-63
2022/03/17 08:59:44;;;;;;;;;9.00;7.00;;;;;9.17;71.90;100941.41;5074400;28;8870;-64
2022/03/17 09:02:12;;;;;;;;;12.50;9.50;;;;;9.19;71.57;100945.69;5074101;28;8954;-64
2022/03/17 09:04:40;;;;;;;;;6.00;6.00;;;;;9.22;71.32;100944.66;5074115;28;8848;-63
2022/03/17 09:07:08;;;;;;;;;10.40;10.00;;;;;9.25;71.33;100955.09;5074218;28;8941;-63
2022/03/17 09:09:36;;;;;;;;;7.40;7.40;;;;;9.28;70.99;100965.59;5073508;28;9517;-63
2022/03/17 09:12:05;;;;;;;;;10.40;9.60;;;;;9.26;71.25;100967.47;5074387;28;8872;-62
2022/03/17 09:14:33;;;;;;;;;8.00;8.00;;;;;9.22;71.14;100980.09;5075040;28;8847;-63
2022/03/17 09:17:01;;;;;;;;;6.40;6.20;;;;;9.17;71.03;100989.25;5074628;28;8827;-64
2022/03/17 09:19:30;;;;;;;;;7.20;6.00;;;;;9.11;71.53;100993.13;5074629;28;9073;-63
2022/03/17 09:21:58;;;;;;;;;9.00;9.00;;;;;9.09;71.50;100992.34;5074597;28;8978;-64
2022/03/17 09:24:30;;;;;;;;;7.20;6.40;;;;;9.08;71.36;100995.09;5073583;28;8872;-64
2022/03/17 09:26:58;;;;;;;;;13.20;12.80;;;;;9.06;71.17;101007.59;5074188;28;8848;-63
2022/03/17 09:29:28;;;;;;;;;14.40;12.00;;;;;9.04;71.73;101020.13;5072758;28;9150;-64
2022/03/17 09:31:58;;;;;;;;;10.20;9.60;;;;;9.05;71.32;101020.03;5070114;28;8949;-63
2022/03/17 09:34:25;;;;;;;;;8.60;8.60;;;;;9.07;70.93;101026.13;5074082;28;8828;-63
2022/03/17 09:36:53;;;;;;;;;7.80;7.40;;;;;9.05;71.16;101030.66;5073022;28;8844;-63
2022/03/17 09:42:06;;;;;;;;;7.80;6.40;;;;;9.00;70.89;101038.03;5073784;28;8855;-63
2022/03/17 09:44:34;;;;;;;;;12.00;9.80;;;;;8.96;71.41;101044.44;5073915;28;8874;-63
2022/03/17 09:47:02;;;;;;;;;8.20;6.80;;;;;8.96;71.52;101046.28;5073659;28;8848;-63
2022/03/17 09:49:29;;;;;;;;;9.00;7.00;;;;;8.94;71.55;101049.00;5073911;28;8836;-63
2022/03/17 09:51:58;;;;;;;;;7.80;7.80;;;;;8.94;71.12;101056.97;5072589;28;8847;-63
2022/03/17 09:54:26;;;;;;;;;8.60;7.40;;;;;8.94;70.85;101061.41;5074026;28;8871;-64
2022/03/17 09:56:54;;;;;;;;;4.40;4.00;;;;;8.96;70.70;101065.69;5074494;28;8879;-63
2022/03/17 09:59:21;;;;;;;;;6.75;6.25;;;;;8.98;70.70;101069.13;5072321;28;8850;-63
2022/03/17 10:01:49;;;;;;;;;9.40;8.20;;;;;9.00;70.52;101074.34;5073858;28;8840;-63
2022/03/17 10:04:18;;;;;;;;;11.60;9.00;;;;;8.99;70.25;101072.66;5073694;28;8825;-63
2022/03/17 10:06:45;;;;;;;;;9.00;8.60;;;;;9.00;70.55;101082.31;5074075;28;8994;-63
2022/03/17 10:09:13;;;;;;;;;6.20;6.00;;;;;9.03;70.44;101087.50;5073243;28;8843;-64
2022/03/17 10:11:41;;;;;;;;;9.80;7.00;;;;;9.08;70.17;101080.97;5072327;28;8856;-63
2022/03/17 10:14:09;;;;;;;;;5.40;3.00;;;;;9.11;70.01;101088.78;5072422;28;8866;-63
2022/03/17 10:16:36;;;;;;;;;7.40;6.80;;;;;9.14;70.16;101083.31;5072907;28;8966;-65
2022/03/17 10:19:04;;;;;;;;;8.80;6.80;;;;;9.20;69.85;101096.22;5072946;28;8828;-63
2022/03/17 10:21:32;;;;;;;;;4.00;3.80;;;;;9.23;69.70;101097.84;5072146;28;8930;-63
2022/03/17 10:24:00;;;;;;;;;6.60;4.80;;;;;9.26;69.62;101103.88;5071308;28;8832;-64
2022/03/17 10:26:28;;;;;;;;;3.75;3.75;;;;;9.27;69.38;101107.38;5069601;28;8998;-64
2022/03/17 10:28:56;;;;;;;;;5.60;4.00;;;;;9.24;69.79;101112.84;5069875;28;9001;-63
2022/03/17 10:31:24;;;;;;;;;5.50;5.50;;;;;9.23;69.46;101121.78;5069964;28;8847;-63
2022/03/17 10:33:52;;;;;;;;;6.80;5.20;;;;;9.21;69.55;101116.56;5068683;28;8852;-64
2022/03/17 10:36:21;;;;;;;;;6.40;6.20;;;;;9.22;69.52;101125.38;5069534;28;8844;-63
2022/03/17 10:38:51;;;;;;;;;3.80;3.20;;;;;9.23;69.34;101127.97;5069804;28;8846;-63
2022/03/17 10:41:19;;;;;;;;;6.60;5.20;;;;;9.22;69.26;101147.50;5069426;28;8979;-63
2022/03/17 10:43:46;;;;;;;;;7.00;6.60;;;;;9.22;69.67;101142.19;5069402;28;8836;-64
2022/03/17 10:46:16;;;;;;;;;5.50;5.50;;;;;9.23;69.35;101149.22;5070872;28;8848;-63
2022/03/17 10:48:44;;;;;;;;;7.40;7.00;;;;;9.24;68.82;101147.41;5070649;28;8862;-64
2022/03/17 10:51:11;;;;;;;;;6.60;6.60;;;;;9.26;69.19;101151.69;5070493;28;8844;-63
2022/03/17 10:53:39;;;;;;;;;2.60;1.00;;;;;9.29;69.22;101156.88;5071955;28;8824;-64
2022/03/17 10:56:07;;;;;;;;;5.00;4.00;;;;;9.29;69.18;101159.53;5072053;28;9010;-64
2022/03/17 10:58:35;;;;;;;;;5.00;5.00;;;;;9.29;68.67;101154.22;5071652;28;8861;-63
2022/03/17 11:01:03;;;;;;;;;5.50;4.00;;;;;9.29;69.38;101162.19;5070058;28;8836;-64
2022/03/17 11:03:31;;;;;;;;;6.00;4.00;;;;;9.32;69.24;101163.78;5069591;28;8860;-64
2022/03/17 11:05:59;;;;;;;;;3.75;3.75;;;;;9.32;69.16;101167.31;5071624;28;8848;-64
2022/03/17 11:08:27;;;;;;;;;1.00;1.00;;;;;9.34;69.00;101177.88;5071304;28;8839;-64
2022/03/17 11:10:55;;;;;;;;;1.50;1.50;;;;;9.35;68.96;101174.28;5071333;28;8839;-63
2022/03/17 11:13:22;;;;;;;;;2.50;2.50;;;;;9.34;68.95;101189.34;5071208;28;8898;-63
2022/03/17 11:15:50;;;;;;;;;6.00;4.00;;;;;9.33;68.42;101182.31;5072321;28;8835;-63
2022/03/17 11:18:18;;;;;;;;;6.00;6.00;;;;;9.32;69.19;101180.59;5071853;28;8851;-63
2022/03/17 11:20:46;;;;;;;;;3.25;3.00;;;;;9.32;69.19;101195.69;5073502;28;8900;-64
2022/03/17 11:23:15;;;;;;;;;4.00;4.00;;;;;9.31;69.13;101194.84;5072783;28;8844;-63
2022/03/17 11:25:43;;;;;;;;;3.75;3.00;;;;;9.32;68.99;101201.00;5071709;28;8945;-63
2022/03/17 11:28:11;;;;;;;;;3.75;3.50;;;;;9.34;68.68;101201.78;5072650;28;9488;-63
2022/03/17 11:30:39;;;;;;;;;1.00;1.00;;;;;9.39;69.16;101208.56;5071003;28;8840;-64
2022/03/17 11:33:06;;;;;;;;;5.00;3.25;;;;;9.43;68.79;101212.75;5071220;28;8843;-63
2022/03/17 11:35:34;;;;;;;;;3.50;3.50;;;;;9.44;68.93;101206.53;5071313;28;8852;-63
2022/03/17 11:38:02;;;;;;;;;4.00;3.50;;;;;9.50;68.63;101210.66;5070734;28;8982;-63
2022/03/17 11:40:29;;;;;;;;;2.50;2.50;;;;;9.55;68.50;101214.75;5070372;28;8824;-63
2022/03/17 11:42:57;;;;;;;;;4.00;3.00;;;;;9.58;68.32;101205.75;5071524;28;8921;-63